Hundvaag 1 weather for Nov 2008
Month no. 257
Obs.
Da.
Temp. Dew Point Precip. Wind
Speed
Wind gusts Cloud cover Press. Humidity Wind dir. Sunny OPT
01.11.2008 0,5   0,0 1,2   9 1014,9 92,0 22,5 1 77,5 %
02.11.2008 1,8   0,0 1,2   8 1021,0 86,0 202,5 1 75,0 %
03.11.2008 2,8   0,0 3,5   10 1023,0 92,0 45,0 1 82,5 %
04.11.2008 3,3   0,0 3,5   10 1023,0 93,0 90,0 1 82,5 %
05.11.2008 5,7   0,0 2,3   1 1026,1 100,0 45,0   62,5 %
06.11.2008 6,5   0,0 0,0   10 1023,0 91,0 157,5 1 85,0 %
07.11.2008 6,8   0,0 3,0   2 1015,6 72,0 135,0   65,0 %
08.11.2008 8,7   3,5 2,0   3 1009,8 93,0 157,5 1 67,5 %
09.11.2008 10,3   10,5 4,0   0 996,6 88,0 67,5   55,0 %
10.11.2008 6,1   23,0 2,0   0 984,8 94,0 225,0 1 42,5 %
11.11.2008 6,5   4,7 1,0   9 994,2 81,0 157,5 1 80,0 %
12.11.2008 3,1   7,3 2,3   10 1001,0 100,0 22,5 1 77,5 %
13.11.2008 3,9   1,6 2,3   2 1012,9 93,0 247,5   62,5 %
14.11.2008 9,3   18,3 10,4   5 1003,0 93,0 247,5 1 55,0 %
15.11.2008 8,3   19,0 7,4   1 1005,1 81,0 292,5   45,0 %
16.11.2008 6,2   4,6 28,0   0 1005,1 72,0 270,0   40,0 %
17.11.2008 3,8   4,0 1,0   3 1024,7 85,0 202,5 1 62,5 %
18.11.2008 6,6   20,0 13,8   7 996,9 75,0 0,0 1 55,0 %
19.11.2008 3,9   3,3 6,9   0 1000,0 100,0 180,0   52,5 %
20.11.2008 3,4   10,2 8,1   1 991,9 80,0 315,0   47,5 %
21.11.2008 -1,4   4,6 6,9   1 994,9 86,0 22,5   50,0 %
22.11.2008 0,3   0,6 16,1   8 1001,0 69,0 45,0 1 65,0 %
23.11.2008 -3,3   0,0 3,5   10 1001,0 92,0 67,5 1 75,0 %
24.11.2008 -3,4   0,0 3,5   10 994,9 92,0 0,0 1 75,0 %
25.11.2008 -2,2   0,0 3,5   10 1008,1 92,0 22,5 1 77,5 %
26.11.2008 5,8   7,0 1,2   3 1013,9 80,0 292,5 1 62,5 %
27.11.2008 9,2   0,0 16,1   0 998,0 87,0 270,0   52,5 %
28.11.2008 4,7   4,6 4,6   1 994,9 80,0 202,5   55,0 %
29.11.2008 4,9   6,5 6,9   0 998,0 86,0 90,0   50,0 %
30.11.2008 2,3   3,0 2,3   8 994,9 92,0 180,0 1 72,5 %
                       
Avrg/Sum 4,2   156,3 5,6   4,7 1005,7 87,2 142,5 18 63,6 %